Time;durP1;ratioP1;P1;durP2;ratioP2;P2;SDS_P1;SDS_P2;PMS_P1;PMS_P2;Temp;Humidity;BMP_temperature;BMP_pressure;BME280_temperature;BME280_humidity;BME280_pressure;Samples;Min_cycle;Max_cycle;Signal;HPM_P1;HPM_P2
2022/02/02 00:00:00;;;;;;;2.72;2.08;;;3.40;99.90;;;;;;2098866;28;20165;-68
2022/02/02 00:01:02;;;;;;;5.45;2.60;;;3.40;99.90;;;;;;2098852;28;20626;-69
2022/02/02 00:02:17;;;;;;;2.90;2.10;;;3.40;99.90;;;;;;2098598;28;20182;-68
2022/02/02 00:03:19;;;;;;;3.10;2.25;;;3.50;99.90;;;;;;2089986;28;20718;-68
2022/02/02 00:04:24;;;;;;;3.05;2.20;;;3.50;99.90;;;;;;2091685;28;20195;-68
2022/02/02 00:05:33;;;;;;;4.03;2.60;;;3.50;99.90;;;;;;2098842;28;20163;-68
2022/02/02 00:06:41;;;;;;;6.20;2.42;;;3.50;99.90;;;;;;2098826;28;20213;-68
2022/02/02 00:07:52;;;;;;;4.88;2.97;;;3.50;99.90;;;;;;2098708;28;20168;-68
2022/02/02 00:09:03;;;;;;;6.30;3.67;;;3.50;99.90;;;;;;2098563;28;20187;-69
2022/02/02 00:10:24;;;;;;;6.82;3.17;;;3.60;99.90;;;;;;2098047;28;20155;-68
2022/02/02 00:12:48;;;;;;;4.80;2.88;;;3.60;99.90;;;;;;2098489;28;20167;-68
2022/02/02 00:15:02;;;;;;;7.70;3.80;;;3.70;99.90;;;;;;2097983;28;20193;-68
2022/02/02 00:16:34;;;;;;;4.93;3.63;;;3.70;99.90;;;;;;2098660;28;20163;-68
2022/02/02 00:17:47;;;;;;;5.75;2.90;;;3.70;99.90;;;;;;2098729;28;20189;-68
2022/02/02 00:18:56;;;;;;;6.97;2.80;;;3.70;99.90;;;;;;2098547;28;20671;-69
2022/02/02 00:20:13;;;;;;;6.35;3.45;;;3.80;99.90;;;;;;2098058;28;20215;-68
2022/02/02 00:21:22;;;;;;;9.43;3.35;;;3.70;99.90;;;;;;2098184;28;20178;-68
2022/02/02 00:22:29;;;;;;;8.32;3.10;;;3.70;99.90;;;;;;2098630;28;20203;-68
2022/02/02 00:23:37;;;;;;;4.82;3.17;;;3.70;99.90;;;;;;2098578;28;20216;-68
2022/02/02 00:24:55;;;;;;;6.57;3.22;;;3.70;99.90;;;;;;2098528;28;20243;-68
2022/02/02 00:26:01;;;;;;;5.20;2.78;;;3.60;99.90;;;;;;2098509;28;20162;-68
2022/02/02 00:27:06;;;;;;;3.85;2.67;;;3.60;99.90;;;;;;2098747;28;20202;-68
2022/02/02 00:28:07;;;;;;;3.92;2.40;;;3.60;99.90;;;;;;2098657;28;20196;-68
2022/02/02 00:29:17;;;;;;;4.97;2.47;;;3.60;99.90;;;;;;2097814;28;20717;-68
2022/02/02 00:30:21;;;;;;;5.40;2.65;;;3.60;99.90;;;;;;2098174;28;20158;-68
2022/02/02 00:31:27;;;;;;;2.08;1.52;;;3.60;99.90;;;;;;2098364;28;20199;-68
2022/02/02 00:33:33;;;;;;;2.47;1.43;;;3.50;99.90;;;;;;2090538;28;20608;-68
2022/02/02 00:34:34;;;;;;;2.63;1.80;;;3.40;99.90;;;;;;2097929;28;20172;-68
2022/02/02 00:35:43;;;;;;;2.80;1.53;;;3.50;99.90;;;;;;2098535;28;20556;-68
2022/02/02 00:36:56;;;;;;;1.52;1.23;;;3.40;99.90;;;;;;2097844;28;20161;-68
2022/02/02 00:37:57;;;;;;;1.45;1.20;;;3.50;99.90;;;;;;2092345;28;20675;-68
2022/02/02 00:38:57;;;;;;;2.00;1.60;;;3.50;99.90;;;;;;2097856;28;20190;-68
2022/02/02 00:39:58;;;;;;;1.30;1.00;;;3.50;99.90;;;;;;2098587;28;20429;-68
2022/02/02 00:40:59;;;;;;;1.50;1.10;;;3.50;99.90;;;;;;2098436;28;20189;-68
2022/02/02 00:42:00;;;;;;;1.73;1.20;;;3.40;99.90;;;;;;2097649;28;20655;-68
2022/02/02 00:43:01;;;;;;;2.90;1.63;;;3.40;99.90;;;;;;2098011;28;20178;-68
2022/02/02 00:44:03;;;;;;;3.77;1.80;;;3.30;99.90;;;;;;2098378;28;20194;-68
2022/02/02 00:45:04;;;;;;;2.53;1.73;;;3.40;99.90;;;;;;2098303;28;20185;-68
2022/02/02 00:46:05;;;;;;;2.20;1.63;;;3.40;99.90;;;;;;2097696;28;20189;-68
2022/02/02 00:47:05;;;;;;;2.80;2.00;;;3.40;99.90;;;;;;2097817;28;20171;-68
2022/02/02 00:48:06;;;;;;;3.63;2.27;;;3.40;99.90;;;;;;2098435;28;20184;-68
2022/02/02 00:49:07;;;;;;;3.63;2.50;;;3.50;99.90;;;;;;2098316;28;20179;-68
2022/02/02 00:50:08;;;;;;;3.00;2.27;;;3.50;99.90;;;;;;2098203;28;20175;-68
2022/02/02 00:51:09;;;;;;;4.47;2.33;;;3.50;99.90;;;;;;2088827;28;20183;-68
2022/02/02 00:52:09;;;;;;;6.53;2.93;;;3.50;99.90;;;;;;2089406;28;20732;-68
2022/02/02 00:53:11;;;;;;;4.60;3.17;;;3.50;99.90;;;;;;2098308;28;20251;-68
2022/02/02 00:54:18;;;;;;;4.63;3.10;;;3.60;99.90;;;;;;2098228;28;20186;-68
2022/02/02 00:55:19;;;;;;;6.68;3.67;;;3.50;99.90;;;;;;2097698;28;20541;-69
2022/02/02 00:56:20;;;;;;;7.63;3.33;;;3.50;99.90;;;;;;2097604;28;20186;-68
2022/02/02 00:57:23;;;;;;;6.17;3.60;;;3.50;99.90;;;;;;2098269;28;20186;-68
2022/02/02 00:58:24;;;;;;;5.75;3.25;;;3.60;99.90;;;;;;2098157;28;20295;-68
2022/02/02 00:59:25;;;;;;;8.97;4.13;;;3.60;99.90;;;;;;2098199;28;20201;-68
2022/02/02 01:00:26;;;;;;;6.33;3.77;;;3.70;99.90;;;;;;2097428;28;20182;-68
2022/02/02 01:01:26;;;;;;;7.87;4.40;;;3.70;99.90;;;;;;2097488;28;20351;-68
2022/02/02 01:02:27;;;;;;;6.57;3.90;;;3.70;99.90;;;;;;2098073;28;20265;-68
2022/02/02 01:03:28;;;;;;;7.50;4.63;;;3.80;99.90;;;;;;2097185;28;20182;-68
2022/02/02 01:04:29;;;;;;;6.45;4.00;;;3.80;99.90;;;;;;2098095;28;20174;-68
2022/02/02 01:05:29;;;;;;;8.20;4.50;;;3.80;99.90;;;;;;2097550;28;20206;-68
2022/02/02 01:06:34;;;;;;;7.47;4.30;;;3.70;99.90;;;;;;2089361;28;20209;-68
2022/02/02 01:09:05;;;;;;;7.53;4.93;;;3.80;99.90;;;;;;2098016;28;20196;-68
2022/02/02 01:20:27;;;;;;;9.80;5.20;;;3.80;99.90;;;;;;2097523;28;20226;-68
2022/02/02 01:21:31;;;;;;;7.82;4.90;;;3.90;99.90;;;;;;2097741;28;20229;-68
2022/02/02 01:27:50;;;;;;;15.07;4.45;;;4.00;99.90;;;;;;2097960;28;20163;-68
2022/02/02 01:28:51;;;;;;;7.30;5.15;;;3.90;99.90;;;;;;2097968;28;20182;-68
2022/02/02 01:29:52;;;;;;;8.67;4.17;;;3.90;99.90;;;;;;2097295;28;20174;-67
2022/02/02 01:30:54;;;;;;;8.13;4.50;;;3.90;99.90;;;;;;2097350;28;20209;-68
2022/02/02 01:31:55;;;;;;;8.43;4.57;;;3.90;99.90;;;;;;2097177;28;20205;-68
2022/02/02 01:32:56;;;;;;;8.95;4.88;;;3.90;99.90;;;;;;2097342;28;20266;-68
2022/02/02 01:33:57;;;;;;;8.03;4.70;;;3.90;99.90;;;;;;2097945;28;20639;-68
2022/02/02 01:34:57;;;;;;;8.40;4.60;;;3.90;99.90;;;;;;2097791;28;20182;-68
2022/02/02 01:35:59;;;;;;;7.10;4.30;;;3.90;99.90;;;;;;2097828;28;20189;-68
2022/02/02 01:36:59;;;;;;;10.65;4.32;;;3.90;99.90;;;;;;2097314;28;20240;-68
2022/02/02 01:38:00;;;;;;;9.67;4.53;;;4.00;99.90;;;;;;2088906;28;20285;-68
2022/02/02 01:39:04;;;;;;;8.88;4.25;;;4.00;99.90;;;;;;2097214;28;20187;-68
2022/02/02 01:40:13;;;;;;;7.32;4.97;;;4.00;99.90;;;;;;2097817;28;20726;-67
2022/02/02 01:41:23;;;;;;;7.85;4.45;;;4.00;99.90;;;;;;2097171;28;20155;-68
2022/02/02 01:42:29;;;;;;;10.48;4.97;;;4.00;99.90;;;;;;2097332;28;20236;-68
2022/02/02 01:43:38;;;;;;;8.55;4.40;;;4.00;99.90;;;;;;2097253;28;20167;-68
2022/02/02 01:44:48;;;;;;;7.45;4.18;;;4.00;99.90;;;;;;2090584;28;20546;-68
2022/02/02 01:46:11;;;;;;;8.52;4.75;;;4.00;99.90;;;;;;2097456;28;20174;-68
2022/02/02 01:47:12;;;;;;;7.63;4.40;;;4.00;99.90;;;;;;2097750;28;20198;-68
2022/02/02 01:50:59;;;;;;;5.72;3.67;;;4.10;99.90;;;;;;2097165;28;20172;-68
2022/02/02 01:53:34;;;;;;;9.68;3.90;;;4.10;99.90;;;;;;2097794;28;20802;-68
2022/02/02 01:54:54;;;;;;;7.07;4.22;;;4.10;99.90;;;;;;2097591;28;20621;-68
2022/02/02 01:55:55;;;;;;;7.88;4.25;;;4.10;99.90;;;;;;2088763;28;20168;-68
2022/02/02 01:56:58;;;;;;;6.25;3.70;;;4.10;99.90;;;;;;2091391;28;20193;-68
2022/02/02 01:58:10;;;;;;;5.95;3.60;;;4.10;99.90;;;;;;2097138;28;20190;-68
2022/02/02 02:00:12;;;;;;;7.90;4.33;;;4.10;99.90;;;;;;2097738;28;20655;-68
2022/02/02 02:01:13;;;;;;;7.53;4.28;;;4.00;99.90;;;;;;2097546;28;20175;-68
2022/02/02 02:02:14;;;;;;;9.03;3.97;;;4.00;99.90;;;;;;2097563;28;20245;-68
2022/02/02 02:03:15;;;;;;;7.00;3.80;;;4.00;99.90;;;;;;2097660;28;20264;-68
2022/02/02 02:04:15;;;;;;;7.33;4.00;;;4.00;99.90;;;;;;2097111;28;20174;-68
2022/02/02 02:05:16;;;;;;;9.57;3.73;;;4.00;99.90;;;;;;2096963;28;20819;-68
2022/02/02 02:06:18;;;;;;;8.03;4.07;;;4.00;99.90;;;;;;2097724;28;20602;-68
2022/02/02 02:07:21;;;;;;;6.78;4.13;;;4.00;99.90;;;;;;2097036;28;20179;-68
2022/02/02 02:08:22;;;;;;;7.57;3.88;;;4.00;99.90;;;;;;2089170;28;20196;-68
2022/02/02 02:09:25;;;;;;;11.30;4.00;;;4.00;99.90;;;;;;2096892;28;20269;-68
2022/02/02 02:10:26;;;;;;;7.63;3.53;;;4.00;99.90;;;;;;2097689;28;20186;-68
2022/02/02 02:11:27;;;;;;;7.57;4.10;;;3.90;99.90;;;;;;2097559;28;20252;-68
2022/02/02 02:12:47;;;;;;;8.17;3.63;;;3.90;99.90;;;;;;2097701;28;20182;-68
2022/02/02 02:15:11;;;;;;;6.60;3.42;;;3.90;99.90;;;;;;2092810;28;20182;-68
2022/02/02 02:16:12;;;;;;;6.72;3.83;;;4.00;99.90;;;;;;2091528;28;20206;-68
2022/02/02 02:17:13;;;;;;;6.83;4.07;;;4.00;99.90;;;;;;2097035;28;20248;-68
2022/02/02 02:18:13;;;;;;;7.95;3.80;;;4.00;99.90;;;;;;2097444;28;20203;-68
2022/02/02 02:19:14;;;;;;;4.87;3.07;;;3.90;99.90;;;;;;2097524;28;20179;-68
2022/02/02 02:20:15;;;;;;;6.77;3.77;;;3.90;99.90;;;;;;2097510;28;20175;-68
2022/02/02 02:21:17;;;;;;;8.40;3.73;;;3.80;99.90;;;;;;2096803;28;20190;-68
2022/02/02 02:22:29;;;;;;;7.10;4.03;;;3.90;99.90;;;;;;2088818;28;20703;-68
2022/02/02 02:23:30;;;;;;;7.43;3.70;;;4.00;99.90;;;;;;2097055;28;20255;-68
2022/02/02 02:24:31;;;;;;;4.80;3.53;;;3.90;99.90;;;;;;2096736;28;20204;-68
2022/02/02 02:25:33;;;;;;;8.50;3.70;;;3.90;99.90;;;;;;2096884;28;20186;-68
2022/02/02 02:26:39;;;;;;;7.97;3.65;;;3.90;99.90;;;;;;2096842;28;20278;-68
2022/02/02 02:27:41;;;;;;;6.45;3.50;;;4.00;99.90;;;;;;2097007;28;20175;-68
2022/02/02 02:28:58;;;;;;;5.72;3.55;;;3.90;99.90;;;;;;2097366;28;20187;-68
2022/02/02 02:30:06;;;;;;;7.63;3.58;;;3.90;99.90;;;;;;2097648;28;20169;-68
2022/02/02 02:31:20;;;;;;;5.20;3.20;;;3.90;99.90;;;;;;2097545;28;20167;-68
2022/02/02 02:56:22;;;;;;;7.72;2.80;;;3.90;99.90;;;;;;2097571;28;20178;-67
2022/02/02 02:57:28;;;;;;;5.50;2.80;;;3.80;99.90;;;;;;2096654;28;20642;-67
2022/02/02 02:59:44;;;;;;;8.23;3.40;;;3.80;99.90;;;;;;2096699;28;20628;-67
2022/02/02 03:30:45;;;;;;;5.38;3.05;;;3.90;99.90;;;;;;2097314;28;20267;-67
2022/02/02 03:34:33;;;;;;;6.40;2.50;;;3.90;99.90;;;;;;2096555;28;20183;-68
2022/02/02 03:52:23;;;;;;;6.47;2.67;;;3.80;99.90;;;;;;2093014;28;20206;-67
2022/02/02 03:54:43;;;;;;;6.65;2.65;;;3.80;99.90;;;;;;2092406;28;20615;-67
2022/02/02 03:57:08;;;;;;;6.00;2.40;;;3.80;99.90;;;;;;2096695;28;20178;-67
2022/02/02 04:02:53;;;;;;;6.80;2.92;;;3.80;99.90;;;;;;2096542;28;20198;-67
2022/02/02 04:04:10;;;;;;;6.30;3.00;;;3.80;99.90;;;;;;2096855;28;20168;-67
2022/02/02 04:06:56;;;;;;;3.45;2.35;;;3.80;99.90;;;;;;2071417;28;20615;-67
2022/02/02 04:08:24;;;;;;;6.90;2.47;;;3.80;99.90;;;;;;2094069;28;20206;-67
2022/02/02 04:09:26;;;;;;;7.45;2.50;;;3.80;99.90;;;;;;2096329;28;20171;-67
2022/02/02 04:10:26;;;;;;;6.85;2.50;;;3.80;99.90;;;;;;2096784;28;20175;-67
2022/02/02 04:11:39;;;;;;;7.37;2.80;;;3.90;99.90;;;;;;2097213;28;20359;-67
2022/02/02 04:38:10;;;;;;;6.60;3.00;;;3.80;99.90;;;;;;2097233;28;20182;-67
2022/02/02 04:52:41;;;;;;;7.50;2.75;;;3.70;99.90;;;;;;2098694;28;20162;-67
2022/02/02 04:56:17;;;;;;;10.05;3.20;;;3.80;99.90;;;;;;2098198;28;20190;-67
2022/02/02 04:58:46;;;;;;;8.50;3.28;;;3.80;99.90;;;;;;2098553;28;20923;-67
2022/02/02 05:00:20;;;;;;;7.88;3.58;;;3.90;99.90;;;;;;2097823;28;20185;-67
2022/02/02 05:02:10;;;;;;;11.32;3.00;;;3.90;99.90;;;;;;2098309;28;20183;-68
2022/02/02 05:05:36;;;;;;;8.18;3.80;;;4.00;99.90;;;;;;2097879;28;20178;-67
2022/02/02 05:06:47;;;;;;;7.82;3.38;;;4.00;99.90;;;;;;2098300;28;20198;-67
2022/02/02 05:11:07;;;;;;;5.47;2.90;;;4.00;99.90;;;;;;2098377;28;21103;-68
2022/02/02 05:12:54;;;;;;;10.38;3.03;;;4.00;99.90;;;;;;2097756;28;20254;-69
2022/02/02 05:14:41;;;;;;;11.23;3.90;;;4.00;99.90;;;;;;2097888;28;20274;-69
2022/02/02 05:17:43;;;;;;;11.23;2.72;;;4.00;99.90;;;;;;2097895;28;20341;-67
2022/02/02 05:42:06;;;;;;;11.77;3.08;;;4.00;99.90;;;;;;2085926;28;20269;-69
2022/02/02 05:45:31;;;;;;;8.35;2.47;;;4.00;99.90;;;;;;2089480;28;20204;-69
2022/02/02 05:51:52;;;;;;;9.48;2.80;;;4.00;99.90;;;;;;2089040;28;20277;-68
2022/02/02 05:52:53;;;;;;;9.32;3.75;;;4.00;99.90;;;;;;2089318;28;20164;-69
2022/02/02 05:53:54;;;;;;;5.35;2.33;;;4.00;99.90;;;;;;2088971;28;20207;-68
2022/02/02 05:54:54;;;;;;;11.33;2.90;;;4.10;99.90;;;;;;2088895;28;20180;-69
2022/02/02 05:56:03;;;;;;;6.20;2.47;;;4.10;99.90;;;;;;2089597;28;20180;-69
2022/02/02 05:57:07;;;;;;;5.78;2.20;;;4.10;99.90;;;;;;2089735;28;20175;-68
2022/02/02 05:58:09;;;;;;;8.30;2.40;;;4.10;99.90;;;;;;2088865;28;20223;-68
2022/02/02 05:59:11;;;;;;;9.07;3.33;;;4.10;99.90;;;;;;2089167;28;20213;-68
2022/02/02 06:00:14;;;;;;;14.00;3.60;;;4.10;99.90;;;;;;2097154;28;20184;-68
2022/02/02 06:01:16;;;;;;;9.70;2.70;;;4.20;99.90;;;;;;2097029;28;20241;-68
2022/02/02 06:02:18;;;;;;;7.38;2.85;;;4.10;99.90;;;;;;2096837;28;20189;-68
2022/02/02 06:03:25;;;;;;;10.40;2.92;;;4.10;99.90;;;;;;2088729;28;20178;-68
2022/02/02 06:04:28;;;;;;;12.52;2.97;;;4.10;99.90;;;;;;2088694;28;20179;-68
2022/02/02 06:05:29;;;;;;;5.32;2.30;;;4.00;99.90;;;;;;2089400;28;20176;-68
2022/02/02 06:06:31;;;;;;;10.40;3.10;;;4.00;99.90;;;;;;2088692;28;20282;-68
2022/02/02 06:07:39;;;;;;;12.18;3.20;;;4.00;99.90;;;;;;2088776;28;20203;-68
2022/02/02 06:08:46;;;;;;;6.50;2.50;;;4.00;99.90;;;;;;2088615;28;20245;-69
2022/02/02 06:09:49;;;;;;;9.50;2.60;;;4.00;99.90;;;;;;2088705;28;20171;-68
2022/02/02 06:10:50;;;;;;;9.05;2.55;;;4.00;99.90;;;;;;2089208;28;20661;-68
2022/02/02 06:11:53;;;;;;;9.65;2.90;;;4.00;99.90;;;;;;2089241;28;20221;-68
2022/02/02 06:12:54;;;;;;;5.47;2.50;;;4.00;99.90;;;;;;2088619;28;20213;-68
2022/02/02 06:13:58;;;;;;;7.75;2.40;;;3.90;99.90;;;;;;2080617;28;20216;-68
2022/02/02 06:15:00;;;;;;;7.80;2.50;;;3.90;99.90;;;;;;2088554;28;20194;-68
2022/02/02 06:16:02;;;;;;;9.10;3.05;;;4.00;99.90;;;;;;2088639;28;20187;-68
2022/02/02 06:17:06;;;;;;;4.68;2.28;;;4.00;99.90;;;;;;2072216;28;20259;-69
2022/02/02 06:18:07;;;;;;;8.90;2.40;;;4.00;99.90;;;;;;2080882;28;20194;-68
2022/02/02 06:19:08;;;;;;;8.40;2.70;;;4.00;99.90;;;;;;2088412;28;20184;-68
2022/02/02 06:20:09;;;;;;;11.10;2.60;;;4.00;99.90;;;;;;2089335;28;20172;-68
2022/02/02 06:21:12;;;;;;;9.32;2.28;;;4.00;99.90;;;;;;2088592;28;20238;-68
2022/02/02 06:22:20;;;;;;;4.72;2.72;;;4.00;99.90;;;;;;2088806;28;20188;-68
2022/02/02 06:23:33;;;;;;;7.60;2.38;;;4.00;99.90;;;;;;2089242;28;20910;-68
2022/02/02 06:24:48;;;;;;;10.55;2.80;;;4.00;99.90;;;;;;2088436;28;20221;-68
2022/02/02 06:25:49;;;;;;;7.30;2.92;;;3.90;99.90;;;;;;2088834;28;20191;-68
2022/02/02 06:26:53;;;;;;;11.57;3.30;;;3.90;99.90;;;;;;2088628;28;20514;-68
2022/02/02 06:28:00;;;;;;;6.30;2.92;;;3.90;99.90;;;;;;2080704;28;20556;-68
2022/02/02 06:29:05;;;;;;;10.38;2.55;;;3.90;99.90;;;;;;2081019;28;20983;-68
2022/02/02 06:30:09;;;;;;;8.40;2.97;;;3.90;99.90;;;;;;2088646;28;20270;-68
2022/02/02 06:31:13;;;;;;;9.02;2.83;;;3.80;99.90;;;;;;2089095;28;20194;-68
2022/02/02 06:32:14;;;;;;;6.40;2.53;;;3.80;99.90;;;;;;2088521;28;20232;-68
2022/02/02 06:33:16;;;;;;;6.68;2.63;;;3.80;99.90;;;;;;2088512;28;20183;-68
2022/02/02 06:34:22;;;;;;;5.63;3.00;;;3.80;99.90;;;;;;2088490;28;20718;-68
2022/02/02 06:35:23;;;;;;;7.40;2.97;;;3.80;99.90;;;;;;2088589;28;20184;-68
2022/02/02 06:36:29;;;;;;;4.57;2.87;;;3.80;99.90;;;;;;2088673;28;20273;-68
2022/02/02 06:37:30;;;;;;;15.02;2.95;;;3.80;99.90;;;;;;2081076;28;20179;-68
2022/02/02 06:38:32;;;;;;;12.40;2.85;;;3.80;99.90;;;;;;2088580;28;20275;-68
2022/02/02 06:39:33;;;;;;;6.32;2.97;;;3.80;99.90;;;;;;2088523;28;20212;-68
2022/02/02 06:40:35;;;;;;;8.60;3.25;;;3.80;99.90;;;;;;2088507;28;20609;-68
2022/02/02 06:41:36;;;;;;;9.95;3.15;;;3.70;99.90;;;;;;2088469;28;20225;-68
2022/02/02 06:42:38;;;;;;;10.95;3.00;;;3.70;99.90;;;;;;2080319;28;20212;-68
2022/02/02 06:43:39;;;;;;;4.82;2.58;;;3.80;99.90;;;;;;2088514;28;20183;-68
2022/02/02 06:44:41;;;;;;;9.27;2.80;;;3.80;99.90;;;;;;2088424;28;20240;-68
2022/02/02 06:45:42;;;;;;;8.18;2.50;;;3.90;99.90;;;;;;2088396;28;20176;-68
2022/02/02 06:46:45;;;;;;;9.63;2.70;;;3.90;99.90;;;;;;2096730;28;20205;-68
2022/02/02 06:47:48;;;;;;;8.80;3.00;;;3.90;99.90;;;;;;2087696;28;20198;-68
2022/02/02 06:48:49;;;;;;;9.80;3.00;;;3.90;99.90;;;;;;2080718;28;20283;-68
2022/02/02 06:49:50;;;;;;;10.27;3.47;;;3.90;99.90;;;;;;2084799;28;20260;-68
2022/02/02 06:51:05;;;;;;;10.80;2.88;;;3.90;99.90;;;;;;2085716;28;20187;-68
2022/02/02 06:52:22;;;;;;;10.85;2.95;;;3.90;99.90;;;;;;2097105;28;20232;-69
2022/02/02 06:53:36;;;;;;;4.82;2.30;;;3.90;99.90;;;;;;2088426;28;20175;-68
2022/02/02 06:55:00;;;;;;;7.85;2.80;;;3.90;99.90;;;;;;2081578;28;20650;-68
2022/02/02 06:56:31;;;;;;;7.22;2.72;;;3.80;99.90;;;;;;2092526;28;20185;-68
2022/02/02 06:58:27;;;;;;;7.90;2.75;;;3.80;99.90;;;;;;2092916;28;20179;-68
2022/02/02 07:03:37;;;;;;;11.25;3.50;;;3.90;99.90;;;;;;2088811;28;20214;-68
2022/02/02 07:06:14;;;;;;;7.93;3.00;;;4.00;99.90;;;;;;2096682;28;20173;-68
2022/02/02 07:07:54;;;;;;;9.70;2.90;;;3.90;99.90;;;;;;2096365;28;20651;-68
2022/02/02 07:10:19;;;;;;;5.75;2.38;;;3.90;99.90;;;;;;2093845;28;20260;-69
2022/02/02 07:11:44;;;;;;;8.73;2.70;;;3.90;99.90;;;;;;2096886;28;20530;-68
2022/02/02 07:14:01;;;;;;;12.70;3.15;;;3.80;99.90;;;;;;2097306;28;20217;-68
2022/02/02 07:15:23;;;;;;;9.52;3.40;;;3.80;99.90;;;;;;2096710;28;20294;-68
2022/02/02 07:17:48;;;;;;;13.45;3.65;;;3.90;99.90;;;;;;2097126;28;20194;-68
2022/02/02 07:19:35;;;;;;;5.75;2.80;;;3.90;99.90;;;;;;2096380;28;20709;-68
2022/02/02 07:20:35;;;;;;;11.00;4.07;;;3.90;99.90;;;;;;2092874;28;20718;-68
2022/02/02 07:27:45;;;;;;;7.82;3.10;;;3.80;99.90;;;;;;2095995;28;20248;-68
2022/02/02 07:29:09;;;;;;;9.25;3.38;;;3.90;99.90;;;;;;2096825;28;20313;-68
2022/02/02 07:32:42;;;;;;;10.07;3.13;;;3.90;99.90;;;;;;2096531;28;20182;-67
2022/02/02 07:33:47;;;;;;;12.82;3.22;;;4.00;99.90;;;;;;2096694;28;20937;-67
2022/02/02 07:35:21;;;;;;;9.25;2.80;;;3.90;99.90;;;;;;2096062;28;20186;-67
2022/02/02 07:36:33;;;;;;;8.20;3.13;;;3.90;99.90;;;;;;2092700;28;20618;-67
2022/02/02 07:37:43;;;;;;;6.43;3.00;;;4.00;99.90;;;;;;2096830;28;20174;-67
2022/02/02 07:38:58;;;;;;;7.65;3.22;;;4.00;99.90;;;;;;2096549;28;20257;-67
2022/02/02 07:40:03;;;;;;;10.20;3.05;;;4.10;99.90;;;;;;2096443;28;20189;-67
2022/02/02 07:41:06;;;;;;;9.10;2.65;;;4.00;99.90;;;;;;2096400;28;20183;-67
2022/02/02 07:42:10;;;;;;;5.25;2.63;;;3.90;99.90;;;;;;2096433;28;20172;-67
2022/02/02 07:43:23;;;;;;;3.70;2.30;;;3.90;99.90;;;;;;2096425;28;20680;-67
2022/02/02 07:44:30;;;;;;;4.18;2.58;;;3.90;99.90;;;;;;2089420;28;20176;-68
2022/02/02 07:45:34;;;;;;;3.97;2.17;;;3.90;99.90;;;;;;2096532;28;20826;-67
2022/02/02 07:46:37;;;;;;;6.22;2.22;;;3.90;99.90;;;;;;2096943;28;20201;-67
2022/02/02 07:47:44;;;;;;;2.40;1.75;;;3.80;99.90;;;;;;2097065;28;20179;-67
2022/02/02 07:48:47;;;;;;;4.78;1.80;;;3.70;99.90;;;;;;2096973;28;20167;-67
2022/02/02 07:49:52;;;;;;;2.75;1.60;;;3.70;99.90;;;;;;2096224;28;20202;-67
2022/02/02 07:50:56;;;;;;;3.33;1.15;;;3.60;99.90;;;;;;2096245;28;20701;-67
2022/02/02 07:51:57;;;;;;;1.85;1.50;;;3.60;99.90;;;;;;2096362;28;20195;-67
2022/02/02 07:53:04;;;;;;;5.20;1.50;;;3.60;99.90;;;;;;2088486;28;20191;-68
2022/02/02 07:54:09;;;;;;;3.45;1.50;;;3.60;99.90;;;;;;2088981;28;20183;-68
2022/02/02 07:55:12;;;;;;;1.85;1.65;;;3.70;99.90;;;;;;2080776;28;20183;-68
2022/02/02 07:56:16;;;;;;;3.60;1.75;;;3.70;99.90;;;;;;2089065;28;20271;-67
2022/02/02 07:57:24;;;;;;;4.00;1.80;;;3.70;99.90;;;;;;2096898;28;20215;-67
2022/02/02 07:58:25;;;;;;;4.30;2.00;;;3.60;99.90;;;;;;2096933;28;20220;-68
2022/02/02 07:59:48;;;;;;;5.43;2.40;;;3.70;99.90;;;;;;2096049;28;20233;-67
2022/02/02 08:00:49;;;;;;;5.47;1.98;;;3.70;99.90;;;;;;2096060;28;20660;-68
2022/02/02 08:01:52;;;;;;;3.23;1.87;;;3.80;99.90;;;;;;2096945;28;20211;-67
2022/02/02 08:03:09;;;;;;;6.70;2.30;;;3.90;99.90;;;;;;2096782;28;20745;-67
2022/02/02 08:04:11;;;;;;;9.70;3.13;;;4.00;99.90;;;;;;2097019;28;20170;-67
2022/02/02 08:05:14;;;;;;;8.75;3.08;;;3.90;99.90;;;;;;2096465;28;20182;-67
2022/02/02 08:06:15;;;;;;;4.28;3.08;;;3.80;99.90;;;;;;2096860;28;20175;-67
2022/02/02 08:07:23;;;;;;;8.80;2.60;;;3.70;99.90;;;;;;2096217;28;20651;-67
2022/02/02 08:09:32;;;;;;;6.70;3.03;;;3.80;99.90;;;;;;2096162;28;20238;-67
2022/02/02 08:10:35;;;;;;;8.38;3.20;;;3.90;99.90;;;;;;2096365;28;20551;-67
2022/02/02 08:11:38;;;;;;;10.57;2.83;;;4.00;99.90;;;;;;2096236;28;20261;-67
2022/02/02 08:12:47;;;;;;;5.78;3.85;;;4.00;99.90;;;;;;2097892;28;20184;-67
2022/02/02 08:13:54;;;;;;;7.30;3.40;;;4.00;99.90;;;;;;2098471;28;20178;-68
2022/02/02 08:14:56;;;;;;;7.70;2.75;;;4.00;99.90;;;;;;2098150;28;20178;-68
2022/02/02 08:16:01;;;;;;;7.82;2.72;;;4.10;99.90;;;;;;2097803;28;20326;-67
2022/02/02 08:17:02;;;;;;;9.13;3.30;;;4.20;99.90;;;;;;2090298;28;20187;-68
2022/02/02 08:18:03;;;;;;;6.18;2.90;;;4.20;99.90;;;;;;2090074;28;20189;-67
2022/02/02 08:19:04;;;;;;;8.07;2.67;;;4.20;99.90;;;;;;2089413;28;20191;-68
2022/02/02 08:20:06;;;;;;;12.50;3.00;;;4.30;99.90;;;;;;2097742;28;20186;-68
2022/02/02 08:21:07;;;;;;;9.20;2.88;;;4.20;99.90;;;;;;2097804;28;20736;-67
2022/02/02 08:22:07;;;;;;;4.97;2.90;;;4.30;99.90;;;;;;2097767;28;20240;-67
2022/02/02 08:23:08;;;;;;;8.30;2.83;;;4.30;99.90;;;;;;2098358;28;20233;-67
2022/02/02 08:24:09;;;;;;;9.63;2.97;;;4.40;99.90;;;;;;2098374;28;20199;-67
2022/02/02 08:25:25;;;;;;;7.10;2.80;;;4.40;99.90;;;;;;2098059;28;20199;-67
2022/02/02 08:26:26;;;;;;;10.88;3.00;;;4.40;99.90;;;;;;2097643;28;20273;-67
2022/02/02 08:27:26;;;;;;;8.37;2.73;;;4.40;99.90;;;;;;2097848;28;20549;-67
2022/02/02 08:28:27;;;;;;;6.03;2.73;;;4.50;99.90;;;;;;2097587;28;20179;-67
2022/02/02 08:29:28;;;;;;;7.23;2.80;;;4.50;99.90;;;;;;2097665;28;20183;-67
2022/02/02 08:30:30;;;;;;;6.90;2.97;;;4.50;99.90;;;;;;2098341;28;20575;-68
2022/02/02 08:31:31;;;;;;;5.28;2.78;;;4.30;99.90;;;;;;2097828;28;20202;-68
2022/02/02 08:32:39;;;;;;;7.93;2.97;;;4.20;99.90;;;;;;2097742;28;20564;-68
2022/02/02 08:33:44;;;;;;;5.00;3.00;;;4.10;99.90;;;;;;2098428;28;20171;-67
2022/02/02 08:34:49;;;;;;;7.68;3.20;;;4.20;99.90;;;;;;2097848;28;20198;-68
2022/02/02 08:35:54;;;;;;;7.50;3.30;;;4.20;99.90;;;;;;2097815;28;20175;-67
2022/02/02 08:36:56;;;;;;;12.43;3.33;;;4.30;99.90;;;;;;2097807;28;20907;-68
2022/02/02 08:38:16;;;;;;;6.60;2.72;;;4.40;99.90;;;;;;2097662;28;20269;-68
2022/02/02 08:39:28;;;;;;;11.55;2.83;;;4.50;99.90;;;;;;2097741;28;20294;-68
2022/02/02 08:40:55;;;;;;;9.98;3.20;;;4.50;99.90;;;;;;2098298;28;20645;-67
2022/02/02 08:41:54;;;;;;;8.68;2.83;;;4.50;99.90;;;;;;2098145;28;20238;-67
2022/02/02 08:42:58;;;;;;;5.22;2.83;;;4.40;99.90;;;;;;2097562;28;20787;-68
2022/02/02 08:44:04;;;;;;;9.23;3.08;;;4.30;99.90;;;;;;2097426;28;20195;-68
2022/02/02 08:45:25;;;;;;;10.23;3.65;;;4.40;99.90;;;;;;2097694;28;20546;-67
2022/02/02 08:46:40;;;;;;;11.15;3.05;;;4.40;99.90;;;;;;2093885;28;20246;-67
2022/02/02 08:47:46;;;;;;;6.47;3.10;;;4.50;99.90;;;;;;2084145;28;20180;-68
2022/02/02 08:48:50;;;;;;;7.45;3.25;;;4.60;99.90;;;;;;2084199;28;20175;-67
2022/02/02 08:49:56;;;;;;;11.00;4.07;;;4.50;99.90;;;;;;2097569;28;20183;-67
2022/02/02 08:51:02;;;;;;;7.47;3.03;;;4.50;99.90;;;;;;2096122;28;20178;-67
2022/02/02 08:52:03;;;;;;;5.00;3.05;;;4.60;99.90;;;;;;2097736;28;20180;-68
2022/02/02 08:53:15;;;;;;;8.05;3.22;;;4.60;99.90;;;;;;2097538;28;20744;-67
2022/02/02 08:54:34;;;;;;;8.95;3.10;;;4.50;99.90;;;;;;2095886;28;20715;-67
2022/02/02 08:55:58;;;;;;;9.27;3.38;;;4.40;99.90;;;;;;2096658;28;20172;-67
2022/02/02 08:57:20;;;;;;;6.22;2.60;;;4.40;99.90;;;;;;2097845;28;20192;-68
2022/02/02 08:58:25;;;;;;;7.72;3.15;;;4.20;99.90;;;;;;2098348;28;20998;-68
2022/02/02 09:00:37;;;;;;;7.57;3.10;;;4.20;99.90;;;;;;2097733;28;20178;-68
2022/02/02 09:01:38;;;;;;;8.38;3.00;;;4.20;99.90;;;;;;2097705;28;20580;-68
2022/02/02 09:02:52;;;;;;;8.50;2.87;;;4.20;99.90;;;;;;2098197;28;20211;-67
2022/02/02 09:05:20;;;;;;;5.15;2.50;;;4.10;99.90;;;;;;2097635;28;20167;-67
2022/02/02 09:06:21;;;;;;;5.78;2.58;;;4.10;99.90;;;;;;2098163;28;20246;-68
2022/02/02 09:07:22;;;;;;;9.10;3.40;;;4.10;99.90;;;;;;2098100;28;20545;-67
2022/02/02 09:08:28;;;;;;;5.90;2.63;;;4.20;99.90;;;;;;2098111;28;20587;-67
2022/02/02 09:22:01;;;;;;;8.80;2.70;;;4.70;99.90;;;;;;2097842;28;20259;-69
2022/02/02 09:23:46;;;;;;;3.80;2.60;;;4.70;99.90;;;;;;2098085;28;20540;-68
2022/02/02 09:25:03;;;;;;;11.63;2.85;;;4.60;99.90;;;;;;2097269;28;20168;-70
2022/02/02 09:32:56;;;;;;;10.02;2.92;;;4.70;99.90;;;;;;2080052;28;20201;-69
2022/02/02 09:34:08;;;;;;;7.60;2.53;;;4.80;99.90;;;;;;2080123;28;20204;-70
2022/02/02 09:35:09;;;;;;;4.93;2.38;;;4.90;99.90;;;;;;2076478;28;20178;-70
2022/02/02 09:36:14;;;;;;;7.63;2.60;;;4.90;99.90;;;;;;2072141;28;20185;-68
2022/02/02 09:37:16;;;;;;;9.60;2.78;;;4.90;99.90;;;;;;2072626;28;20526;-70
2022/02/02 09:38:17;;;;;;;7.97;3.22;;;4.90;99.90;;;;;;2087360;28;20195;-70
2022/02/02 09:39:29;;;;;;;11.43;3.50;;;5.00;99.90;;;;;;2096909;28;20203;-69
2022/02/02 09:41:45;;;;;;;13.45;3.63;;;5.00;99.90;;;;;;2105718;28;20703;-72
2022/02/02 09:42:55;;;;;;;7.70;2.67;;;5.00;99.90;;;;;;2097146;28;20204;-69
2022/02/02 09:44:03;;;;;;;7.72;2.75;;;4.90;99.90;;;;;;2091169;28;20160;-70